createdAt,value
2023-10-13T07:49:51.908Z,99.80
2023-10-13T07:52:38.163Z,99.80
2023-10-13T07:55:21.401Z,99.80
2023-10-13T07:57:56.436Z,99.80
2023-10-13T08:00:30.716Z,99.80
2023-10-13T08:03:10.733Z,99.80
2023-10-13T08:06:00.138Z,99.80
2023-10-13T08:08:36.194Z,99.80
2023-10-13T08:11:09.743Z,99.80
2023-10-13T08:13:45.208Z,99.80
2023-10-13T08:16:23.622Z,99.80
2023-10-13T08:18:51.742Z,99.80
2023-10-13T08:21:24.211Z,99.80
2023-10-13T08:24:07.105Z,99.80
2023-10-13T08:26:54.918Z,99.80
2023-10-13T08:29:40.263Z,99.80
2023-10-13T08:32:24.979Z,99.80
2023-10-13T08:35:11.039Z,99.80
2023-10-13T08:38:06.257Z,99.80
2023-10-13T08:41:18.255Z,99.80
2023-10-13T08:43:51.515Z,99.80
2023-10-13T08:46:31.028Z,99.80
2023-10-13T08:49:16.891Z,99.80
2023-10-13T08:51:50.438Z,99.80
2023-10-13T08:54:35.630Z,99.80
2023-10-13T08:57:30.362Z,99.80
2023-10-13T09:00:18.208Z,99.80
2023-10-13T09:03:01.165Z,99.80
2023-10-13T09:05:43.899Z,99.80
2023-10-13T09:08:17.331Z,99.80
2023-10-13T09:10:50.420Z,99.80
2023-10-13T09:13:22.222Z,99.80
2023-10-13T09:16:02.130Z,99.80
2023-10-13T09:18:49.230Z,99.80
2023-10-13T09:21:38.040Z,99.80
2023-10-13T09:24:23.099Z,99.80
2023-10-13T09:26:57.206Z,99.80
2023-10-13T09:29:26.150Z,99.80
2023-10-13T09:32:03.492Z,99.80
2023-10-13T09:34:32.969Z,99.80
2023-10-13T09:37:04.335Z,99.80
2023-10-13T09:39:35.281Z,99.80
2023-10-13T09:42:10.397Z,99.80
2023-10-13T09:44:41.233Z,99.80
2023-10-13T09:47:18.671Z,99.80
2023-10-13T09:49:50.072Z,99.80
2023-10-13T09:52:20.691Z,99.80
2023-10-13T09:55:05.678Z,99.80
2023-10-13T09:57:37.492Z,99.80
2023-10-13T10:00:30.292Z,99.80
2023-10-13T10:03:07.016Z,99.80
2023-10-13T10:05:36.721Z,99.80
2023-10-13T10:08:03.830Z,99.80
2023-10-13T10:10:49.813Z,99.80
2023-10-13T10:13:31.581Z,99.80
2023-10-13T10:16:04.008Z,99.80
2023-10-13T10:18:31.943Z,99.80
2023-10-13T10:21:08.592Z,99.80
2023-10-13T10:23:40.735Z,99.80
2023-10-13T10:26:15.176Z,99.80
2023-10-13T10:28:45.555Z,99.80
2023-10-13T10:31:15.245Z,99.80
2023-10-13T10:33:44.010Z,99.80
2023-10-13T10:36:15.334Z,99.80
2023-10-13T10:39:00.124Z,99.80
2023-10-13T10:41:40.360Z,99.80
2023-10-13T10:44:19.021Z,99.80
2023-10-13T10:46:58.316Z,99.80
2023-10-13T10:49:31.728Z,99.80
2023-10-13T10:52:05.477Z,99.80
2023-10-13T10:54:33.740Z,99.80
2023-10-13T10:57:12.861Z,99.80
2023-10-13T10:59:42.137Z,99.80
2023-10-13T11:02:10.076Z,99.80
2023-10-13T11:04:51.692Z,99.80
2023-10-13T11:07:26.966Z,99.80
2023-10-13T11:10:07.903Z,99.80
2023-10-13T11:12:36.124Z,99.80
2023-10-13T11:15:23.015Z,99.80
2023-10-13T11:17:56.075Z,99.80
2023-10-13T11:20:34.252Z,99.80
2023-10-13T11:23:05.587Z,99.80
2023-10-13T11:25:36.761Z,99.80
2023-10-13T11:28:21.049Z,99.80
2023-10-13T11:30:51.886Z,94.20
2023-10-13T11:33:24.667Z,84.80
2023-10-13T11:35:57.548Z,79.00
2023-10-13T11:38:29.945Z,76.70
2023-10-13T11:41:16.134Z,73.60
2023-10-13T11:44:03.562Z,70.70
2023-10-13T11:46:50.665Z,70.50
2023-10-13T11:49:33.062Z,68.80
2023-10-13T11:52:19.272Z,69.20
2023-10-13T11:54:50.264Z,71.90
2023-10-13T11:57:20.801Z,76.90
2023-10-13T11:59:57.034Z,74.90
2023-10-13T12:02:44.094Z,75.20
2023-10-13T12:05:14.140Z,78.50
2023-10-13T12:07:49.486Z,83.70
2023-10-13T12:10:21.854Z,88.00
2023-10-13T12:12:54.707Z,91.70
2023-10-13T12:15:37.812Z,93.90
2023-10-13T12:18:07.740Z,94.00
2023-10-13T12:20:36.970Z,90.30
2023-10-13T12:23:18.368Z,90.40
2023-10-13T12:25:56.040Z,89.70
2023-10-13T12:28:27.675Z,90.40
2023-10-13T12:30:58.647Z,92.30
2023-10-13T12:33:37.893Z,93.90
2023-10-13T12:36:10.487Z,94.30
2023-10-13T12:38:52.140Z,96.80
2023-10-13T12:41:38.227Z,98.20
2023-10-13T12:44:25.179Z,98.90
2023-10-13T12:47:11.490Z,98.20
2023-10-13T12:50:00.574Z,99.30
2023-10-13T12:52:32.891Z,99.80
2023-10-13T12:55:07.181Z,99.80
2023-10-13T12:57:35.888Z,99.80
2023-10-13T13:00:17.871Z,99.80
2023-10-13T13:02:46.479Z,99.80
2023-10-13T13:05:16.090Z,99.80
2023-10-13T13:07:53.460Z,99.80
2023-10-13T13:10:22.384Z,99.80
2023-10-13T13:12:50.204Z,99.80
2023-10-13T13:15:24.608Z,99.80
2023-10-13T13:17:52.629Z,99.80
2023-10-13T13:20:29.530Z,99.80
2023-10-13T13:23:03.723Z,99.80
2023-10-13T13:25:33.603Z,99.80
2023-10-13T13:28:06.282Z,99.80
2023-10-13T13:30:36.366Z,99.80
2023-10-13T13:33:12.184Z,99.80
2023-10-13T13:35:43.912Z,99.80
2023-10-13T13:38:18.143Z,99.80
2023-10-13T13:40:50.249Z,99.80
2023-10-13T13:43:32.806Z,99.80
2023-10-13T13:46:04.638Z,99.80
2023-10-13T13:48:33.711Z,99.80
2023-10-13T13:51:15.307Z,99.80
2023-10-13T13:53:46.410Z,99.80
2023-10-13T13:56:17.598Z,99.80
2023-10-13T13:58:46.676Z,99.80
2023-10-13T14:01:15.816Z,99.80
2023-10-13T14:03:47.403Z,99.80
2023-10-13T14:06:27.222Z,99.80
2023-10-13T14:08:57.237Z,99.80
2023-10-13T14:11:59.417Z,99.80
2023-10-13T14:14:34.943Z,99.80
2023-10-13T14:17:09.010Z,99.80
2023-10-13T14:19:42.682Z,99.80
2023-10-13T14:22:16.231Z,99.80
2023-10-13T14:24:53.907Z,99.80
2023-10-13T14:27:24.210Z,99.80
2023-10-13T14:29:57.375Z,99.80
2023-10-13T14:32:28.635Z,99.80
2023-10-13T14:34:57.700Z,99.80
2023-10-13T14:37:31.853Z,99.80
2023-10-13T14:40:01.163Z,99.40
2023-10-13T14:42:36.512Z,99.80
2023-10-13T14:45:13.304Z,99.00
2023-10-13T14:47:41.734Z,98.20
2023-10-13T14:50:15.390Z,99.00
2023-10-13T14:52:44.841Z,97.50
2023-10-13T14:55:21.070Z,98.00
2023-10-13T14:57:50.782Z,99.50
2023-10-13T15:00:25.857Z,99.30
2023-10-13T15:02:55.395Z,99.70
2023-10-13T15:05:23.653Z,99.20
2023-10-13T15:07:53.044Z,98.70
2023-10-13T15:10:21.481Z,97.90
2023-10-13T15:12:50.160Z,95.00
2023-10-13T15:15:20.164Z,95.00
2023-10-13T15:17:48.339Z,95.50
2023-10-13T15:20:20.932Z,95.60
2023-10-13T15:22:49.990Z,97.10
2023-10-13T15:25:22.991Z,95.50
2023-10-13T15:27:56.568Z,95.40
2023-10-13T15:30:27.654Z,95.40
2023-10-13T15:32:58.655Z,95.80
2023-10-13T15:35:30.737Z,96.70
2023-10-13T15:37:58.750Z,97.60
2023-10-13T15:40:29.995Z,98.60
2023-10-13T15:43:00.443Z,97.10
2023-10-13T15:45:40.282Z,97.20
2023-10-13T15:50:41.987Z,97.80
2023-10-13T15:53:13.571Z,97.50
2023-10-13T15:55:47.284Z,95.80
2023-10-13T15:58:16.758Z,96.40
2023-10-13T16:00:46.133Z,95.50
2023-10-13T16:03:14.282Z,96.70
2023-10-13T16:05:43.964Z,96.80
2023-10-13T16:08:13.314Z,97.60
2023-10-13T16:10:43.425Z,97.70
2023-10-13T16:13:16.681Z,96.90
2023-10-13T16:15:48.466Z,98.10
2023-10-13T16:18:22.146Z,99.30
2023-10-13T16:20:51.540Z,99.80
2023-10-13T16:23:19.619Z,99.80
2023-10-13T16:25:50.241Z,99.80
2023-10-13T16:28:18.503Z,99.80
2023-10-13T16:30:46.520Z,99.80
2023-10-13T16:33:14.445Z,99.80
2023-10-13T16:35:46.875Z,99.80
2023-10-13T16:38:15.205Z,99.80
2023-10-13T16:40:43.129Z,99.80
2023-10-13T16:43:13.582Z,99.80
2023-10-13T16:45:45.258Z,99.80
2023-10-13T16:48:14.816Z,99.80
2023-10-13T16:50:42.814Z,99.80
2023-10-13T16:53:11.173Z,99.80
2023-10-13T16:55:42.839Z,99.80
2023-10-13T16:58:15.423Z,99.80
2023-10-13T17:00:47.861Z,99.80
2023-10-13T17:03:16.410Z,99.80
2023-10-13T17:05:44.994Z,99.80
2023-10-13T17:08:14.580Z,99.80
2023-10-13T17:10:42.691Z,99.80
2023-10-13T17:13:14.418Z,99.80
2023-10-13T17:15:42.475Z,99.80
2023-10-13T17:18:10.846Z,99.80
2023-10-13T17:20:41.944Z,99.80
2023-10-13T17:23:10.767Z,99.80
2023-10-13T17:25:40.475Z,99.80
2023-10-13T17:28:14.101Z,99.80
2023-10-13T17:30:46.338Z,99.80
2023-10-13T17:33:16.344Z,99.80
2023-10-13T17:35:45.076Z,99.80
2023-10-13T17:38:13.026Z,99.80
2023-10-13T17:40:40.878Z,99.80
2023-10-13T17:43:09.557Z,99.80
2023-10-13T17:45:37.560Z,99.80
2023-10-13T17:48:11.168Z,99.80
2023-10-13T17:50:39.156Z,99.80
2023-10-13T17:53:07.041Z,99.80
2023-10-13T17:55:34.988Z,99.80
2023-10-13T17:58:02.880Z,99.80
2023-10-13T18:00:31.464Z,99.80
2023-10-13T18:03:04.711Z,99.80
2023-10-13T18:05:36.475Z,99.80
2023-10-13T18:08:04.780Z,99.80
2023-10-13T18:10:32.658Z,99.80
2023-10-13T18:13:00.660Z,99.80
2023-10-13T18:15:30.267Z,99.80
2023-10-13T18:17:58.213Z,99.80
2023-10-13T18:20:26.622Z,99.80
2023-10-13T18:23:00.601Z,99.80
2023-10-13T18:25:30.420Z,99.80
2023-10-13T18:27:58.276Z,99.80
2023-10-13T18:30:27.132Z,99.80
2023-10-13T18:32:55.981Z,99.80
2023-10-13T18:35:26.255Z,99.80
2023-10-13T18:37:55.964Z,99.80
2023-10-13T18:40:23.872Z,99.80
2023-10-13T18:42:52.946Z,99.80
2023-10-13T18:45:23.468Z,99.80
2023-10-13T18:47:53.632Z,99.80
2023-10-13T18:50:24.050Z,99.80
2023-10-13T18:52:53.782Z,99.80
2023-10-13T18:55:23.317Z,99.80
2023-10-13T18:57:51.255Z,99.80
2023-10-13T19:00:23.816Z,99.80
2023-10-13T19:02:52.712Z,99.80
2023-10-13T19:05:21.438Z,99.80
2023-10-13T19:07:51.467Z,99.80
2023-10-13T19:10:19.931Z,99.80
2023-10-13T19:12:51.339Z,99.80
2023-10-13T19:15:19.581Z,99.80
2023-10-13T19:17:47.646Z,99.80
2023-10-13T19:20:17.806Z,99.80
2023-10-13T19:22:47.291Z,99.80
2023-10-13T19:25:15.350Z,99.80
2023-10-13T19:27:43.305Z,99.80
2023-10-13T19:30:15.342Z,99.80
2023-10-13T19:32:43.312Z,99.80
2023-10-13T19:35:11.504Z,99.80
2023-10-13T19:37:43.424Z,99.80
2023-10-13T19:40:12.909Z,99.80
2023-10-13T19:42:42.284Z,99.80
2023-10-13T19:45:13.909Z,99.80
2023-10-13T19:47:45.240Z,99.80
2023-10-13T19:50:15.053Z,99.80
2023-10-13T19:52:43.298Z,99.80
2023-10-13T19:55:17.190Z,99.80
2023-10-13T19:57:46.261Z,99.80
2023-10-13T20:00:21.927Z,99.80
2023-10-13T20:02:51.842Z,99.80
2023-10-13T20:05:21.507Z,99.80
2023-10-13T20:07:49.761Z,99.80
2023-10-13T20:10:18.045Z,99.80
2023-10-13T20:12:46.110Z,99.80
2023-10-13T20:15:16.283Z,99.80
2023-10-13T20:17:44.823Z,99.80
2023-10-13T20:20:17.535Z,99.80
2023-10-13T20:22:46.432Z,99.80
2023-10-13T20:25:16.093Z,99.80
2023-10-13T20:27:45.122Z,99.80
2023-10-13T20:30:17.376Z,99.80
2023-10-13T20:32:46.936Z,99.80
2023-10-13T20:35:19.202Z,99.80
2023-10-13T20:37:47.113Z,99.20
2023-10-13T20:40:20.397Z,99.20
2023-10-13T20:42:50.580Z,98.80
2023-10-13T20:45:24.085Z,99.10
2023-10-13T20:47:53.219Z,98.70
2023-10-13T20:50:21.887Z,98.40
2023-10-13T20:52:51.080Z,98.60
2023-10-13T20:55:19.977Z,98.20
2023-10-13T20:57:50.753Z,98.40
2023-10-13T21:00:24.612Z,97.80
2023-10-13T21:02:52.921Z,97.90
2023-10-13T21:05:23.275Z,98.40
2023-10-13T21:07:51.987Z,98.40
2023-10-13T21:10:20.558Z,98.10
2023-10-13T21:12:51.633Z,98.00
2023-10-13T21:15:25.499Z,98.30
2023-10-13T21:17:53.802Z,97.80
2023-10-13T21:20:21.881Z,98.20
2023-10-13T21:22:52.881Z,98.60
2023-10-13T21:25:25.147Z,98.50
2023-10-13T21:27:57.419Z,98.30
2023-10-13T21:30:27.265Z,98.60
2023-10-13T21:32:59.157Z,98.70
2023-10-13T21:35:28.441Z,99.50
2023-10-13T21:38:00.970Z,99.60
2023-10-13T21:40:31.105Z,99.60
2023-10-13T21:43:02.541Z,99.80
2023-10-13T21:45:31.895Z,99.80
2023-10-13T21:48:04.246Z,99.80
2023-10-13T21:50:32.293Z,99.80
2023-10-13T21:53:00.756Z,99.80
2023-10-13T21:55:29.357Z,99.80
2023-10-13T21:57:57.317Z,99.80
2023-10-13T22:00:46.285Z,99.80
2023-10-13T22:03:15.677Z,99.80
2023-10-13T22:05:45.731Z,99.80
2023-10-13T22:08:14.187Z,99.80
2023-10-13T22:10:42.073Z,99.80
2023-10-13T22:13:09.987Z,99.80
2023-10-13T22:15:40.847Z,99.80
2023-10-13T22:18:09.143Z,99.80
2023-10-13T22:20:38.465Z,99.80
2023-10-13T22:23:06.348Z,99.80
2023-10-13T22:25:34.158Z,99.80
2023-10-13T22:28:02.020Z,99.80
2023-10-13T22:30:30.527Z,99.80
2023-10-13T22:32:58.596Z,99.80
2023-10-13T22:35:26.663Z,99.80
2023-10-13T22:37:56.129Z,99.80
2023-10-13T22:40:25.210Z,99.80
2023-10-13T22:42:54.153Z,99.80
2023-10-13T22:45:24.943Z,99.80
2023-10-13T22:47:54.278Z,99.80
2023-10-13T22:50:24.161Z,99.80
2023-10-13T22:52:52.109Z,99.80
2023-10-13T22:55:23.888Z,99.80
2023-10-13T22:57:53.351Z,99.80
2023-10-13T23:00:34.733Z,99.80
2023-10-13T23:03:11.241Z,99.80
2023-10-13T23:05:55.584Z,99.80
2023-10-13T23:08:36.602Z,99.80
2023-10-13T23:11:16.544Z,99.80
2023-10-13T23:13:57.009Z,99.80
2023-10-13T23:16:33.769Z,99.80
2023-10-13T23:19:03.293Z,99.80
2023-10-13T23:21:32.932Z,99.80
2023-10-13T23:24:12.447Z,99.80
2023-10-13T23:26:45.662Z,99.80
2023-10-13T23:29:18.368Z,99.80
2023-10-13T23:31:51.601Z,99.80
2023-10-13T23:34:36.726Z,99.80
2023-10-13T23:37:10.420Z,99.80
2023-10-13T23:39:39.676Z,99.80
2023-10-13T23:42:24.012Z,99.80
2023-10-13T23:45:07.558Z,99.80
2023-10-13T23:47:52.576Z,99.80
2023-10-13T23:50:28.915Z,99.80
2023-10-13T23:53:00.291Z,99.80
2023-10-13T23:55:32.691Z,99.80
2023-10-13T23:58:11.276Z,99.80
